createdAt,value
2018-04-23T00:02:04.379Z,98173.66
2018-04-23T00:04:31.865Z,98174.23
2018-04-23T00:06:59.426Z,98173.17
2018-04-23T00:09:26.946Z,98176.06
2018-04-23T00:11:54.432Z,98169.56
2018-04-23T00:14:21.923Z,98172.98
2018-04-23T00:16:49.449Z,98170.52
2018-04-23T00:19:16.936Z,98167.84
2018-04-23T00:21:44.438Z,98163.27
2018-04-23T00:24:11.905Z,98162.91
2018-04-23T00:26:39.383Z,98163.95
2018-04-23T00:29:07.058Z,98163.66
2018-04-23T00:31:34.672Z,98164.66
2018-04-23T00:34:02.155Z,98158.69
2018-04-23T00:36:29.626Z,98160.80
2018-04-23T00:38:57.256Z,98157.96
2018-04-23T00:41:24.754Z,98159.36
2018-04-23T00:43:52.230Z,98159.28
2018-04-23T00:46:19.719Z,98161.72
2018-04-23T00:48:47.213Z,98163.17
2018-04-23T00:51:14.845Z,98173.57
2018-04-23T00:53:42.306Z,98171.14
2018-04-23T00:56:09.772Z,98169.39
2018-04-23T00:58:37.252Z,98169.79
2018-04-23T01:01:04.788Z,98171.67
2018-04-23T01:03:32.250Z,98170.34
2018-04-23T01:05:59.735Z,98167.72
2018-04-23T01:08:27.217Z,98165.77
2018-04-23T01:10:54.752Z,98168.70
2018-04-23T01:13:22.219Z,98174.51
2018-04-23T01:15:49.720Z,98170.06
2018-04-23T01:18:17.218Z,98170.89
2018-04-23T01:20:44.698Z,98174.94
2018-04-23T01:23:12.269Z,98174.18
2018-04-23T01:25:39.774Z,98174.05
2018-04-23T01:28:07.263Z,98170.75
2018-04-23T01:30:34.773Z,98173.73
2018-04-23T01:33:02.241Z,98177.27
2018-04-23T01:35:29.753Z,98179.39
2018-04-23T01:37:57.245Z,98181.41
2018-04-23T01:40:24.731Z,98181.22
2018-04-23T01:42:52.233Z,98181.95
2018-04-23T01:45:19.725Z,98184.10
2018-04-23T01:47:47.215Z,98184.69
2018-04-23T01:50:14.687Z,98186.86
2018-04-23T01:52:42.162Z,98186.41
2018-04-23T01:55:09.772Z,98186.11
2018-04-23T01:57:37.317Z,98187.04
2018-04-23T02:00:04.879Z,98187.78
2018-04-23T02:02:32.350Z,98191.19
2018-04-23T02:04:59.822Z,98186.82
2018-04-23T02:07:27.298Z,98191.68
2018-04-23T02:09:54.786Z,98192.99
2018-04-23T02:12:22.676Z,98187.41
2018-04-23T02:14:50.212Z,98200.81
2018-04-23T02:17:17.674Z,98193.16
2018-04-23T02:19:45.158Z,98200.67
2018-04-23T02:22:12.656Z,98197.23
2018-04-23T02:24:40.202Z,98196.08
2018-04-23T02:27:07.730Z,98194.17
2018-04-23T02:29:35.220Z,98189.09
2018-04-23T02:32:02.703Z,98199.80
2018-04-23T02:34:30.166Z,98195.36
2018-04-23T02:36:57.677Z,98197.55
2018-04-23T02:39:25.167Z,98189.41
2018-04-23T02:41:52.708Z,98187.30
2018-04-23T02:44:20.210Z,98195.20
2018-04-23T02:46:47.762Z,98187.97
2018-04-23T02:49:15.247Z,98186.98
2018-04-23T02:51:42.723Z,98190.83
2018-04-23T02:54:10.205Z,98179.42
2018-04-23T02:56:37.702Z,98185.86
2018-04-23T02:59:05.192Z,98182.66
2018-04-23T03:01:32.754Z,98187.61
2018-04-23T03:04:00.221Z,98183.05
2018-04-23T03:06:27.679Z,98185.80
2018-04-23T03:08:55.270Z,98187.22
2018-04-23T03:11:22.762Z,98185.05
2018-04-23T03:13:50.264Z,98180.95
2018-04-23T03:16:17.750Z,98178.85
2018-04-23T03:18:45.236Z,98175.77
2018-04-23T03:21:12.700Z,98180.95
2018-04-23T03:23:40.163Z,98175.87
2018-04-23T03:26:07.646Z,98172.53
2018-04-23T03:28:35.145Z,98170.36
2018-04-23T03:31:02.610Z,98173.22
2018-04-23T03:33:30.127Z,98170.61
2018-04-23T03:35:57.598Z,98176.23
2018-04-23T03:38:25.082Z,98171.53
2018-04-23T03:40:52.573Z,98159.73
2018-04-23T03:43:20.041Z,98166.09
2018-04-23T03:45:47.536Z,98169.19
2018-04-23T03:48:15.204Z,98168.48
2018-04-23T03:50:42.744Z,98169.47
2018-04-23T03:53:10.221Z,98176.84
2018-04-23T03:55:37.906Z,98172.55
2018-04-23T03:58:05.412Z,98179.13
2018-04-23T04:00:33.276Z,98174.34
2018-04-23T04:03:00.764Z,98175.26
2018-04-23T04:05:28.244Z,98173.53
2018-04-23T04:07:55.737Z,98173.27
2018-04-23T04:10:23.212Z,98178.37
2018-04-23T04:13:02.517Z,98176.72
2018-04-23T04:15:41.869Z,98172.84
2018-04-23T04:21:10.322Z,98174.97
2018-04-23T04:23:37.809Z,98175.02
2018-04-23T04:26:05.318Z,98170.18
2018-04-23T04:28:32.793Z,98178.36
2018-04-23T04:31:00.283Z,98174.96
2018-04-23T04:33:27.766Z,98186.37
2018-04-23T04:35:55.269Z,98187.16
2018-04-23T04:38:22.756Z,98188.56
2018-04-23T04:40:50.263Z,98186.91
2018-04-23T04:43:17.752Z,98188.92
2018-04-23T04:45:45.230Z,98190.26
2018-04-23T04:48:12.708Z,98190.55
2018-04-23T04:50:40.195Z,98191.99
2018-04-23T04:53:07.695Z,98192.96
2018-04-23T04:55:35.179Z,98187.06
2018-04-23T04:58:02.687Z,98189.75
2018-04-23T05:00:30.310Z,98190.39
2018-04-23T05:02:57.793Z,98191.31
2018-04-23T05:05:25.303Z,98190.97
2018-04-23T05:07:52.770Z,98197.77
2018-04-23T05:10:20.248Z,98195.31
2018-04-23T05:12:47.749Z,98189.47
2018-04-23T05:15:15.265Z,98194.84
2018-04-23T05:20:33.278Z,98188.19
2018-04-23T05:23:00.751Z,98194.25
2018-04-23T05:25:28.240Z,98193.14
2018-04-23T05:27:55.733Z,98196.52
2018-04-23T05:30:23.222Z,98193.83
2018-04-23T05:32:50.724Z,98190.55
2018-04-23T05:35:18.206Z,98193.63
2018-04-23T05:37:45.701Z,98196.98
2018-04-23T05:40:13.172Z,98204.34
2018-04-23T05:42:40.648Z,98206.41
2018-04-23T05:45:08.118Z,98209.87
2018-04-23T05:47:35.584Z,98204.25
2018-04-23T05:50:03.094Z,98204.70
2018-04-23T05:52:30.719Z,98209.44
2018-04-23T05:54:58.240Z,98204.15
2018-04-23T05:57:25.736Z,98207.38
2018-04-23T05:59:53.250Z,98206.36
2018-04-23T06:02:20.729Z,98206.80
2018-04-23T06:04:48.199Z,98198.91
2018-04-23T06:07:15.698Z,98206.34
2018-04-23T06:09:43.190Z,98209.37
2018-04-23T06:12:10.701Z,98208.18
2018-04-23T06:14:38.174Z,98209.00
2018-04-23T06:17:05.662Z,98209.23
2018-04-23T06:19:33.157Z,98206.09
2018-04-23T06:22:00.783Z,98209.25
2018-04-23T06:24:28.274Z,98205.82
2018-04-23T06:26:55.762Z,98213.92
2018-04-23T06:29:23.245Z,98210.69
2018-04-23T06:31:50.776Z,98213.40
2018-04-23T06:34:18.275Z,98210.90
2018-04-23T06:36:45.747Z,98209.45
2018-04-23T06:39:13.230Z,98214.83
2018-04-23T06:41:40.700Z,98209.45
2018-04-23T06:44:08.165Z,98210.48
2018-04-23T06:46:35.682Z,98205.33
2018-04-23T06:49:03.183Z,98211.97
2018-04-23T06:51:30.679Z,98212.21
2018-04-23T06:53:58.173Z,98214.06
2018-04-23T06:56:25.645Z,98215.53
2018-04-23T06:58:53.128Z,98211.38
2018-04-23T07:01:20.656Z,98206.58
2018-04-23T07:03:48.133Z,98208.63
2018-04-23T07:06:15.592Z,98221.52
2018-04-23T07:08:43.136Z,98232.30
2018-04-23T07:11:10.600Z,98236.26
2018-04-23T07:13:38.076Z,98241.87
2018-04-23T07:16:05.558Z,98245.06
2018-04-23T07:18:33.040Z,98248.02
2018-04-23T07:21:00.579Z,98252.67
2018-04-23T07:23:28.076Z,98255.31
2018-04-23T07:25:55.579Z,98267.58
2018-04-23T07:28:23.076Z,98270.63
2018-04-23T07:30:50.663Z,98275.06
2018-04-23T07:33:18.130Z,98287.40
2018-04-23T07:35:45.687Z,98293.84
2018-04-23T07:38:13.185Z,98296.33
2018-04-23T07:40:40.694Z,98305.59
2018-04-23T07:43:08.184Z,98328.88
2018-04-23T07:45:35.668Z,98327.59
2018-04-23T07:48:03.138Z,98328.08
2018-04-23T07:50:30.618Z,98333.44
2018-04-23T07:52:58.091Z,98338.75
2018-04-23T07:55:25.586Z,98345.48
2018-04-23T07:57:53.170Z,98351.38
2018-04-23T08:00:20.649Z,98352.93
2018-04-23T08:02:48.124Z,98356.89
2018-04-23T08:05:15.632Z,98351.36
2018-04-23T08:07:43.116Z,98357.72
2018-04-23T08:10:10.653Z,98362.93
2018-04-23T08:12:38.136Z,98365.09
2018-04-23T08:15:05.628Z,98386.03
2018-04-23T08:17:33.200Z,98377.61
2018-04-23T08:20:00.684Z,98385.24
2018-04-23T08:22:28.291Z,98394.16
2018-04-23T08:24:55.759Z,98393.43
2018-04-23T08:27:23.256Z,98404.84
2018-04-23T08:29:50.735Z,98408.23
2018-04-23T08:32:18.205Z,98422.00
2018-04-23T08:34:45.680Z,98421.55
2018-04-23T08:37:13.164Z,98429.19
2018-04-23T08:39:40.622Z,98446.63
2018-04-23T08:42:08.140Z,98438.77
2018-04-23T08:44:35.776Z,98446.58
2018-04-23T08:47:03.293Z,98445.75
2018-04-23T08:49:30.759Z,98436.78
2018-04-23T08:51:58.228Z,98438.47
2018-04-23T08:54:25.716Z,98434.66
2018-04-23T08:56:53.208Z,98431.42
2018-04-23T08:59:20.688Z,98437.09
2018-04-23T09:01:48.161Z,98424.68
2018-04-23T09:04:15.626Z,98429.91
2018-04-23T09:06:43.123Z,98423.19
2018-04-23T09:09:10.686Z,98414.77
2018-04-23T09:11:38.210Z,98410.79
2018-04-23T09:14:05.661Z,98411.55
2018-04-23T09:16:33.120Z,98402.92
2018-04-23T09:19:00.585Z,98397.80
2018-04-23T09:21:28.053Z,98413.31
2018-04-23T09:23:55.525Z,98420.58
2018-04-23T09:26:22.997Z,98425.31
2018-04-23T09:28:50.496Z,98424.41
2018-04-23T09:31:17.958Z,98434.66
2018-04-23T09:33:45.432Z,98431.59
2018-04-23T09:36:17.791Z,98423.64
2018-04-23T09:38:45.275Z,98424.17
2018-04-23T09:41:12.752Z,98418.66
2018-04-23T09:43:40.238Z,98424.16
2018-04-23T09:46:07.720Z,98428.03
2018-04-23T09:48:35.198Z,98436.50
2018-04-23T09:51:02.690Z,98436.43
2018-04-23T09:53:30.154Z,98432.98
2018-04-23T09:55:57.614Z,98425.13
2018-04-23T09:58:25.094Z,98418.94
2018-04-23T10:00:52.800Z,98416.66
2018-04-23T10:03:20.281Z,98421.52
2018-04-23T10:05:47.765Z,98421.44
2018-04-23T10:08:15.238Z,98419.52
2018-04-23T10:10:42.732Z,98427.84
2018-04-23T10:13:10.202Z,98427.48
2018-04-23T10:15:38.006Z,98435.39
2018-04-23T10:18:05.483Z,98438.89
2018-04-23T10:20:32.998Z,98435.95
2018-04-23T10:23:00.509Z,98438.94
2018-04-23T10:25:28.022Z,98439.22
2018-04-23T10:27:55.474Z,98440.88
2018-04-23T10:30:23.026Z,98444.81
2018-04-23T10:32:50.530Z,98447.56
2018-04-23T10:35:18.034Z,98448.03
2018-04-23T10:37:45.530Z,98445.06
2018-04-23T10:40:13.006Z,98441.25
2018-04-23T10:42:40.470Z,98445.12
2018-04-23T10:45:07.965Z,98450.54
2018-04-23T10:47:35.457Z,98444.90
2018-04-23T10:50:02.953Z,98446.04
2018-04-23T10:52:30.439Z,98443.91
2018-04-23T10:54:58.022Z,98440.23
2018-04-23T10:57:25.490Z,98439.28
2018-04-23T10:59:52.965Z,98435.64
2018-04-23T11:02:20.454Z,98426.22
2018-04-23T11:04:47.984Z,98432.98
2018-04-23T11:07:15.459Z,98423.27
2018-04-23T11:09:43.025Z,98424.92
2018-04-23T11:12:10.508Z,98425.67
2018-04-23T11:14:38.378Z,98424.43
2018-04-23T11:17:05.961Z,98421.00
2018-04-23T11:19:33.450Z,98420.53
2018-04-23T11:22:00.933Z,98411.62
2018-04-23T11:24:28.418Z,98414.05
2018-04-23T11:26:56.181Z,98413.30
2018-04-23T11:29:23.684Z,98423.44
2018-04-23T11:31:51.162Z,98408.17
2018-04-23T11:34:18.691Z,98416.65
2018-04-23T11:36:46.214Z,98415.50
2018-04-23T11:39:13.690Z,98411.80
2018-04-23T11:41:41.165Z,98417.19
2018-04-23T11:44:08.732Z,98417.61
2018-04-23T11:46:36.223Z,98417.97
2018-04-23T11:49:03.696Z,98415.17
2018-04-23T11:51:31.171Z,98414.60
2018-04-23T11:53:58.632Z,98415.19
2018-04-23T11:56:26.099Z,98410.45
2018-04-23T11:58:53.593Z,98415.42
2018-04-23T12:01:21.103Z,98411.71
2018-04-23T12:03:48.579Z,98418.23
2018-04-23T12:06:16.054Z,98415.27
2018-04-23T12:08:43.533Z,98413.16
2018-04-23T12:11:11.022Z,98414.78
2018-04-23T12:13:38.508Z,98425.06
2018-04-23T12:16:05.981Z,98424.15
2018-04-23T12:18:33.478Z,98428.73
2018-04-23T12:21:00.997Z,98425.67
2018-04-23T12:23:28.550Z,98432.53
2018-04-23T12:25:56.040Z,98433.31
2018-04-23T12:28:23.536Z,98437.47
2018-04-23T12:30:51.165Z,98436.77
2018-04-23T12:33:18.648Z,98439.96
2018-04-23T12:35:46.150Z,98447.16
2018-04-23T12:38:13.636Z,98436.50
2018-04-23T12:40:41.135Z,98435.73
2018-04-23T12:43:08.604Z,98435.44
2018-04-23T12:45:36.088Z,98431.78
2018-04-23T12:48:03.576Z,98428.48
2018-04-23T12:50:31.037Z,98432.13
2018-04-23T12:52:58.589Z,98428.55
2018-04-23T12:55:26.042Z,98435.38
2018-04-23T12:57:53.525Z,98438.35
2018-04-23T13:00:20.982Z,98434.31
2018-04-23T13:02:48.450Z,98425.39
2018-04-23T13:05:15.909Z,98428.45
2018-04-23T13:07:43.506Z,98415.42
2018-04-23T13:10:10.976Z,98413.13
2018-04-23T13:12:40.583Z,98411.60
2018-04-23T13:15:08.147Z,98411.60
2018-04-23T13:17:35.628Z,98412.22
2018-04-23T13:20:03.129Z,98406.64
2018-04-23T13:22:30.587Z,98401.12
2018-04-23T13:24:58.209Z,98398.20
2018-04-23T13:27:25.780Z,98409.50
2018-04-23T13:29:53.243Z,98407.92
2018-04-23T13:32:20.751Z,98404.26
2018-04-23T13:34:48.224Z,98395.38
2018-04-23T13:37:15.699Z,98398.52
2018-04-23T13:39:43.182Z,98393.23
2018-04-23T13:42:10.687Z,98375.20
2018-04-23T13:44:38.262Z,98371.82
2018-04-23T13:47:05.754Z,98365.66
2018-04-23T13:49:33.245Z,98353.23
2018-04-23T13:52:00.926Z,98346.09
2018-04-23T13:54:28.431Z,98336.21
2018-04-23T13:56:55.962Z,98336.06
2018-04-23T13:59:23.559Z,98313.09
2018-04-23T14:01:51.499Z,98326.66
2018-04-23T14:04:19.121Z,98320.22
2018-04-23T14:06:46.635Z,98319.27
2018-04-23T14:09:14.165Z,98310.19
2018-04-23T14:11:41.606Z,98313.09
2018-04-23T14:14:21.862Z,98308.30
2018-04-23T14:16:52.312Z,98306.55
2018-04-23T14:19:37.996Z,98314.45
2018-04-23T14:22:13.536Z,98313.91
2018-04-23T14:24:41.089Z,98314.05
2018-04-23T14:27:09.562Z,98308.33
2018-04-23T14:29:37.045Z,98313.45
2018-04-23T14:32:04.627Z,98306.22
2018-04-23T14:34:32.112Z,98310.58
2018-04-23T14:36:59.600Z,98299.50
2018-04-23T14:39:27.115Z,98300.36
2018-04-23T14:41:54.611Z,98306.16
2018-04-23T14:44:22.130Z,98305.06
2018-04-23T14:46:49.590Z,98293.90
2018-04-23T14:49:17.098Z,98294.30
2018-04-23T14:51:44.649Z,98292.53
2018-04-23T14:54:12.135Z,98288.54
2018-04-23T14:56:46.653Z,98293.14
2018-04-23T14:59:14.166Z,98291.16
2018-04-23T15:01:41.762Z,98298.00
2018-04-23T15:04:09.376Z,98290.89
2018-04-23T15:06:37.458Z,98291.93
2018-04-23T15:09:04.942Z,98286.48
2018-04-23T15:11:32.629Z,98288.76
2018-04-23T15:19:41.434Z,98305.45
2018-04-23T15:22:08.930Z,98301.11
2018-04-23T15:24:37.485Z,98304.00
2018-04-23T15:27:05.000Z,98312.78
2018-04-23T15:29:32.474Z,98308.81
2018-04-23T15:32:00.645Z,98319.36
2018-04-23T15:34:28.162Z,98320.68
2018-04-23T15:36:56.272Z,98321.88
2018-04-23T15:39:23.833Z,98323.75
2018-04-23T15:41:51.403Z,98328.77
2018-04-23T15:44:19.169Z,98326.58
2018-04-23T15:46:46.824Z,98332.02
2018-04-23T15:49:14.385Z,98336.77
2018-04-23T15:51:41.867Z,98343.02
2018-04-23T15:54:09.359Z,98340.20
2018-04-23T15:56:36.921Z,98341.61
2018-04-23T15:59:04.419Z,98349.42
2018-04-23T16:01:31.933Z,98351.90
2018-04-23T16:03:59.471Z,98354.03
2018-04-23T16:06:27.014Z,98355.58
2018-04-23T16:08:55.254Z,98347.45
2018-04-23T16:11:23.906Z,98348.98
2018-04-23T16:13:51.520Z,98349.30
2018-04-23T16:16:18.993Z,98353.84
2018-04-23T16:18:46.479Z,98349.49
2018-04-23T16:21:13.985Z,98363.74
2018-04-23T16:23:41.569Z,98359.39
2018-04-23T16:26:09.183Z,98357.89
2018-04-23T16:28:36.704Z,98366.48
2018-04-23T16:31:04.308Z,98360.86
2018-04-23T16:33:31.862Z,98359.20
2018-04-23T16:35:59.373Z,98352.84
2018-04-23T16:38:26.872Z,98354.38
2018-04-23T16:40:54.513Z,98351.73
2018-04-23T16:43:22.024Z,98344.89
2018-04-23T16:45:49.503Z,98341.38
2018-04-23T16:48:16.961Z,98346.84
2018-04-23T16:50:44.450Z,98346.95
2018-04-23T16:53:12.062Z,98343.75
2018-04-23T16:55:39.640Z,98356.23
2018-04-23T16:58:07.155Z,98355.58
2018-04-23T17:00:34.955Z,98357.39
2018-04-23T17:03:02.408Z,98356.64
2018-04-23T17:05:32.639Z,98358.94
2018-04-23T17:08:00.223Z,98356.27
2018-04-23T17:10:33.582Z,98359.44
2018-04-23T17:13:04.138Z,98369.21
2018-04-23T17:15:31.782Z,98369.41
2018-04-23T17:18:15.866Z,98380.44
2018-04-23T17:20:53.061Z,98387.23
2018-04-23T17:23:28.676Z,98390.27
2018-04-23T17:25:59.418Z,98387.89
2018-04-23T17:28:30.794Z,98390.16
2018-04-23T17:31:13.760Z,98390.45
2018-04-23T17:33:44.506Z,98392.63
2018-04-23T17:36:25.397Z,98395.61
2018-04-23T17:38:55.295Z,98400.84
2018-04-23T17:41:25.237Z,98400.71
2018-04-23T17:43:53.823Z,98398.33
2018-04-23T17:46:32.714Z,98407.67
2018-04-23T17:49:00.792Z,98396.48
2018-04-23T17:51:28.263Z,98402.38
2018-04-23T17:53:59.893Z,98410.53
2018-04-23T17:56:27.486Z,98408.73
2018-04-23T17:58:55.558Z,98412.59
2018-04-23T18:01:23.137Z,98416.33
2018-04-23T18:03:50.615Z,98415.20
2018-04-23T18:06:19.076Z,98420.89
2018-04-23T18:08:46.566Z,98421.35
2018-04-23T18:11:14.033Z,98425.63
2018-04-23T18:13:41.491Z,98421.44
2018-04-23T18:16:08.968Z,98426.38
2018-04-23T18:18:36.458Z,98428.05
2018-04-23T18:21:04.433Z,98429.73
2018-04-23T18:23:31.911Z,98431.59
2018-04-23T18:25:59.476Z,98433.50
2018-04-23T18:28:27.198Z,98431.20
2018-04-23T18:30:54.686Z,98436.50
2018-04-23T18:33:22.166Z,98434.45
2018-04-23T18:35:50.268Z,98443.42
2018-04-23T18:38:17.845Z,98439.23
2018-04-23T18:40:45.515Z,98438.71
2018-04-23T18:43:13.138Z,98442.16
2018-04-23T18:45:40.660Z,98442.61
2018-04-23T18:48:08.265Z,98438.33
2018-04-23T18:50:35.780Z,98444.44
2018-04-23T18:53:03.384Z,98442.05
2018-04-23T18:55:31.003Z,98441.36
2018-04-23T18:57:58.617Z,98439.91
2018-04-23T19:00:26.149Z,98446.28
2018-04-23T19:02:53.630Z,98446.39
2018-04-23T19:05:21.126Z,98445.36
2018-04-23T19:07:48.611Z,98444.89
2018-04-23T19:10:16.686Z,98453.19
2018-04-23T19:12:44.316Z,98449.27
2018-04-23T19:15:11.873Z,98448.33
2018-04-23T19:17:39.402Z,98456.41
2018-04-23T19:20:07.238Z,98466.09
2018-04-23T19:22:34.763Z,98464.28
2018-04-23T19:25:02.273Z,98471.30
2018-04-23T19:27:29.752Z,98465.91
2018-04-23T19:29:57.367Z,98472.77
2018-04-23T19:32:24.979Z,98472.64
2018-04-23T19:34:52.845Z,98471.19
2018-04-23T19:37:20.543Z,98469.44
2018-04-23T19:39:48.025Z,98471.91
2018-04-23T19:42:15.698Z,98479.95
2018-04-23T19:44:43.204Z,98484.44
2018-04-23T19:47:10.861Z,98478.56
2018-04-23T19:49:38.370Z,98490.62
2018-04-23T19:52:05.920Z,98486.74
2018-04-23T19:54:33.387Z,98487.05
2018-04-23T19:57:00.873Z,98488.45
2018-04-23T19:59:28.459Z,98493.47
2018-04-23T20:01:55.961Z,98495.86
2018-04-23T20:04:23.414Z,98503.41
2018-04-23T20:06:50.910Z,98504.79
2018-04-23T20:09:18.522Z,98502.81
2018-04-23T20:11:46.074Z,98506.16
2018-04-23T20:14:13.633Z,98503.30
2018-04-23T20:16:41.234Z,98503.21
2018-04-23T20:19:08.835Z,98509.55
2018-04-23T20:21:36.377Z,98515.53
2018-04-23T20:24:03.899Z,98514.84
2018-04-23T20:26:31.585Z,98515.95
2018-04-23T20:28:59.146Z,98516.44
2018-04-23T20:31:26.723Z,98514.17
2018-04-23T20:33:54.241Z,98507.80
2018-04-23T20:36:21.851Z,98509.73
2018-04-23T20:38:49.370Z,98517.27
2018-04-23T20:41:16.888Z,98515.34
2018-04-23T20:43:44.449Z,98525.41
2018-04-23T20:46:11.952Z,98527.48
2018-04-23T20:48:39.477Z,98528.81
2018-04-23T20:51:07.011Z,98538.01
2018-04-23T20:53:34.515Z,98534.42
2018-04-23T20:56:02.093Z,98541.58
2018-04-23T20:58:29.790Z,98552.89
2018-04-23T21:00:57.333Z,98550.16
2018-04-23T21:03:24.820Z,98548.05
2018-04-23T21:05:52.325Z,98547.86
2018-04-23T21:08:19.817Z,98552.34
2018-04-23T21:10:47.301Z,98554.22
2018-04-23T21:13:14.774Z,98566.66
2018-04-23T21:15:42.285Z,98565.44
2018-04-23T21:18:10.761Z,98567.90
2018-04-23T21:20:38.239Z,98566.62
2018-04-23T21:23:05.696Z,98573.06
2018-04-23T21:25:33.200Z,98569.42
2018-04-23T21:28:00.700Z,98570.46
2018-04-23T21:30:29.990Z,98568.09
2018-04-23T21:32:57.454Z,98568.03
2018-04-23T21:35:25.051Z,98564.62
2018-04-23T21:37:52.558Z,98564.87
2018-04-23T21:40:20.072Z,98566.30
2018-04-23T21:42:47.621Z,98560.16
2018-04-23T21:45:15.139Z,98559.63
2018-04-23T21:47:42.716Z,98565.16
2018-04-23T21:50:10.202Z,98561.30
2018-04-23T21:52:37.708Z,98559.25
2018-04-23T21:55:05.188Z,98566.86
2018-04-23T21:57:32.692Z,98566.87
2018-04-23T22:00:00.160Z,98570.14
2018-04-23T22:02:27.696Z,98569.34
2018-04-23T22:04:55.284Z,98578.65
2018-04-23T22:07:22.921Z,98581.17
2018-04-23T22:09:50.640Z,98588.39
2018-04-23T22:12:18.165Z,98588.98
2018-04-23T22:14:45.754Z,98589.00
2018-04-23T22:17:13.325Z,98596.47
2018-04-23T22:19:40.874Z,98591.30
2018-04-23T22:22:09.509Z,98593.80
2018-04-23T22:24:37.151Z,98595.40
2018-04-23T22:27:04.719Z,98596.47
2018-04-23T22:29:32.316Z,98595.88
2018-04-23T22:31:59.960Z,98600.20
2018-04-23T22:34:27.479Z,98601.63
2018-04-23T22:36:55.000Z,98596.79
2018-04-23T22:39:22.540Z,98597.42
2018-04-23T22:41:50.281Z,98592.61
2018-04-23T22:44:17.950Z,98595.02
2018-04-23T22:46:45.513Z,98596.03
2018-04-23T22:49:13.062Z,98605.69
2018-04-23T22:51:40.589Z,98598.91
2018-04-23T22:54:08.327Z,98602.55
2018-04-23T22:56:35.870Z,98601.53
2018-04-23T22:59:03.400Z,98603.98
2018-04-23T23:01:30.955Z,98600.94
2018-04-23T23:03:58.483Z,98603.48
2018-04-23T23:06:26.023Z,98609.97
2018-04-23T23:08:53.728Z,98608.30
2018-04-23T23:11:21.246Z,98605.94
2018-04-23T23:13:49.126Z,98601.64
2018-04-23T23:16:16.673Z,98604.61
2018-04-23T23:18:44.205Z,98602.12
2018-04-23T23:21:11.716Z,98601.30
2018-04-23T23:23:39.265Z,98603.10
2018-04-23T23:26:06.823Z,98606.47
2018-04-23T23:28:34.368Z,98599.84
2018-04-23T23:31:01.932Z,98595.70
2018-04-23T23:33:29.457Z,98598.25
2018-04-23T23:35:57.279Z,98600.00
2018-04-23T23:38:24.951Z,98596.45
2018-04-23T23:40:52.539Z,98602.30
2018-04-23T23:43:20.103Z,98602.19
2018-04-23T23:45:47.647Z,98604.46
2018-04-23T23:48:15.141Z,98596.92
2018-04-23T23:50:42.619Z,98602.88
2018-04-23T23:53:10.129Z,98605.58
2018-04-23T23:55:37.612Z,98608.59
2018-04-23T23:58:05.073Z,98612.63
